sensor_id;sensor_type;location;lat;lon;timestamp;pressure;altitude;pressure_sealevel;temperature;humidity
56272;BME280;42177;48.914;18.160;2023-07-02T00:02:20;976.4;;;21.7;96.5
56272;BME280;42177;48.914;18.160;2023-07-02T00:07:20;976.4;;;21.4;98.1
56272;BME280;42177;48.914;18.160;2023-07-02T00:12:20;976.4;;;21.4;98.1
56272;BME280;42177;48.914;18.160;2023-07-02T00:17:20;976.5;;;21.4;97.9
56272;BME280;42177;48.914;18.160;2023-07-02T00:22:20;976.5;;;21.4;97.9
56272;BME280;42177;48.914;18.160;2023-07-02T00:27:20;976.5;;;21.2;98.9
56272;BME280;42177;48.914;18.160;2023-07-02T00:32:20;976.5;;;21.2;98.9
56272;BME280;42177;48.914;18.160;2023-07-02T00:37:20;976.4;;;20.8;100
56272;BME280;42177;48.914;18.160;2023-07-02T00:42:20;976.4;;;20.8;100
56272;BME280;42177;48.914;18.160;2023-07-02T00:47:20;976.4;;;20.8;100
56272;BME280;42177;48.914;18.160;2023-07-02T00:52:20;976.4;;;20.8;100
56272;BME280;42177;48.914;18.160;2023-07-02T00:57:20;976.6;;;21.1;98.7
56272;BME280;42177;48.914;18.160;2023-07-02T01:02:20;976.6;;;21.1;98.7
56272;BME280;42177;48.914;18.160;2023-07-02T01:07:20;976.7;;;21.2;96.9
56272;BME280;42177;48.914;18.160;2023-07-02T01:12:20;976.7;;;21.2;96.9
56272;BME280;42177;48.914;18.160;2023-07-02T01:17:20;976.6;;;21;97.1
56272;BME280;42177;48.914;18.160;2023-07-02T01:22:21;976.6;;;21;97.1
56272;BME280;42177;48.914;18.160;2023-07-02T01:27:20;976.6;;;20.8;97.3
56272;BME280;42177;48.914;18.160;2023-07-02T01:32:20;976.6;;;20.8;97.3
56272;BME280;42177;48.914;18.160;2023-07-02T01:37:20;976.5;;;20.9;97.3
56272;BME280;42177;48.914;18.160;2023-07-02T01:42:20;976.5;;;20.9;97.3
56272;BME280;42177;48.914;18.160;2023-07-02T01:47:20;976.5;;;20.8;96.8
56272;BME280;42177;48.914;18.160;2023-07-02T01:52:20;976.5;;;20.8;96.8
56272;BME280;42177;48.914;18.160;2023-07-02T01:57:20;976.6;;;20.8;96.1
56272;BME280;42177;48.914;18.160;2023-07-02T02:02:20;976.6;;;20.8;96.1
56272;BME280;42177;48.914;18.160;2023-07-02T02:07:20;976.6;;;20.8;96.3
56272;BME280;42177;48.914;18.160;2023-07-02T02:12:20;976.6;;;20.8;96.3
56272;BME280;42177;48.914;18.160;2023-07-02T02:17:20;976.6;;;20.6;97.8
56272;BME280;42177;48.914;18.160;2023-07-02T02:22:20;976.6;;;20.6;97.8
56272;BME280;42177;48.914;18.160;2023-07-02T02:27:20;976.7;;;20.7;95
56272;BME280;42177;48.914;18.160;2023-07-02T02:32:20;976.7;;;20.7;95
56272;BME280;42177;48.914;18.160;2023-07-02T02:37:20;976.6;;;19.9;99.3
56272;BME280;42177;48.914;18.160;2023-07-02T02:42:20;976.6;;;19.9;99.3
56272;BME280;42177;48.914;18.160;2023-07-02T02:47:20;976.6;;;19.9;100
56272;BME280;42177;48.914;18.160;2023-07-02T02:52:20;976.6;;;19.9;100
56272;BME280;42177;48.914;18.160;2023-07-02T02:57:20;976.6;;;19.6;100
56272;BME280;42177;48.914;18.160;2023-07-02T03:02:20;976.6;;;19.6;100
56272;BME280;42177;48.914;18.160;2023-07-02T03:07:20;976.7;;;19.8;100
56272;BME280;42177;48.914;18.160;2023-07-02T03:12:20;976.7;;;19.8;100
56272;BME280;42177;48.914;18.160;2023-07-02T03:17:20;976.7;;;20.3;97.7
56272;BME280;42177;48.914;18.160;2023-07-02T03:22:20;976.7;;;20.3;97.7
56272;BME280;42177;48.914;18.160;2023-07-02T03:27:20;976.8;;;20.1;97.3
56272;BME280;42177;48.914;18.160;2023-07-02T03:32:20;976.8;;;20.1;97.3
56272;BME280;42177;48.914;18.160;2023-07-02T03:37:20;977;;;20.6;94
56272;BME280;42177;48.914;18.160;2023-07-02T03:42:20;977;;;20.6;94
56272;BME280;42177;48.914;18.160;2023-07-02T03:47:20;976.9;;;20.3;95.8
56272;BME280;42177;48.914;18.160;2023-07-02T03:52:20;976.9;;;20.3;95.8
56272;BME280;42177;48.914;18.160;2023-07-02T03:57:20;976.9;;;19.8;98.5
56272;BME280;42177;48.914;18.160;2023-07-02T04:02:20;976.9;;;19.8;98.5
56272;BME280;42177;48.914;18.160;2023-07-02T04:07:20;976.8;;;19.7;97.1
56272;BME280;42177;48.914;18.160;2023-07-02T04:12:20;976.8;;;19.7;97.1
56272;BME280;42177;48.914;18.160;2023-07-02T04:17:20;976.9;;;19.8;97.5
56272;BME280;42177;48.914;18.160;2023-07-02T04:22:20;976.9;;;19.8;97.5
56272;BME280;42177;48.914;18.160;2023-07-02T04:27:20;976.9;;;20.1;95
56272;BME280;42177;48.914;18.160;2023-07-02T04:32:20;976.9;;;20.1;95
56272;BME280;42177;48.914;18.160;2023-07-02T04:37:20;977;;;19.8;96.1
56272;BME280;42177;48.914;18.160;2023-07-02T04:42:20;977;;;19.8;96.1
56272;BME280;42177;48.914;18.160;2023-07-02T04:47:20;977;;;20.1;94.8
56272;BME280;42177;48.914;18.160;2023-07-02T04:52:20;977;;;20.1;94.8
56272;BME280;42177;48.914;18.160;2023-07-02T04:57:20;977;;;20;95
56272;BME280;42177;48.914;18.160;2023-07-02T05:02:20;977;;;20;95
56272;BME280;42177;48.914;18.160;2023-07-02T05:07:20;977;;;20.7;91.9
56272;BME280;42177;48.914;18.160;2023-07-02T05:12:20;977;;;20.7;91.9
56272;BME280;42177;48.914;18.160;2023-07-02T05:17:20;977.1;;;20.7;91.9
56272;BME280;42177;48.914;18.160;2023-07-02T05:22:20;977.1;;;20.7;91.9
56272;BME280;42177;48.914;18.160;2023-07-02T05:27:20;977.2;;;21.1;90.2
56272;BME280;42177;48.914;18.160;2023-07-02T05:32:20;977.2;;;21.1;90.2
56272;BME280;42177;48.914;18.160;2023-07-02T05:37:20;977.2;;;21.2;90.1
56272;BME280;42177;48.914;18.160;2023-07-02T05:42:20;977.2;;;21.2;90.1
56272;BME280;42177;48.914;18.160;2023-07-02T05:47:20;977.2;;;21.9;88.9
56272;BME280;42177;48.914;18.160;2023-07-02T05:52:20;977.2;;;21.9;88.9
56272;BME280;42177;48.914;18.160;2023-07-02T05:57:20;977.2;;;21.8;86
56272;BME280;42177;48.914;18.160;2023-07-02T06:02:20;977.2;;;21.8;86
56272;BME280;42177;48.914;18.160;2023-07-02T06:07:20;977.4;;;22.3;82.1
56272;BME280;42177;48.914;18.160;2023-07-02T06:12:20;977.4;;;22.3;82.1
56272;BME280;42177;48.914;18.160;2023-07-02T06:17:20;977.5;;;22.4;80.6
56272;BME280;42177;48.914;18.160;2023-07-02T06:22:20;977.5;;;22.4;80.6
56272;BME280;42177;48.914;18.160;2023-07-02T06:27:20;977.6;;;22.2;79.5
56272;BME280;42177;48.914;18.160;2023-07-02T06:32:20;977.6;;;22.2;79.5
56272;BME280;42177;48.914;18.160;2023-07-02T06:37:20;977.6;;;22.8;78.2
56272;BME280;42177;48.914;18.160;2023-07-02T06:42:20;977.6;;;22.8;78.2
56272;BME280;42177;48.914;18.160;2023-07-02T06:47:20;977.6;;;22.5;72.9
56272;BME280;42177;48.914;18.160;2023-07-02T06:52:20;977.6;;;22.5;72.9
56272;BME280;42177;48.914;18.160;2023-07-02T06:57:20;977.7;;;22.5;73.3
56272;BME280;42177;48.914;18.160;2023-07-02T07:02:20;977.7;;;22.5;73.3
56272;BME280;42177;48.914;18.160;2023-07-02T07:07:20;977.8;;;22.5;73.4
56272;BME280;42177;48.914;18.160;2023-07-02T07:12:20;977.8;;;22.5;73.4
56272;BME280;42177;48.914;18.160;2023-07-02T07:17:20;977.8;;;22.2;73.7
56272;BME280;42177;48.914;18.160;2023-07-02T07:22:20;977.8;;;22.2;73.7
56272;BME280;42177;48.914;18.160;2023-07-02T07:27:20;977.9;;;22.4;74
56272;BME280;42177;48.914;18.160;2023-07-02T07:32:20;977.9;;;22.4;74
56272;BME280;42177;48.914;18.160;2023-07-02T07:37:20;978.1;;;22.7;74.1
56272;BME280;42177;48.914;18.160;2023-07-02T07:42:20;978.1;;;22.7;74.1
56272;BME280;42177;48.914;18.160;2023-07-02T07:47:20;978.1;;;23;72
56272;BME280;42177;48.914;18.160;2023-07-02T07:52:20;978.1;;;23;72
56272;BME280;42177;48.914;18.160;2023-07-02T07:57:20;978;;;23.5;70.9
56272;BME280;42177;48.914;18.160;2023-07-02T08:02:20;978;;;23.5;70.9
56272;BME280;42177;48.914;18.160;2023-07-02T08:07:20;978.1;;;22.9;72
56272;BME280;42177;48.914;18.160;2023-07-02T08:12:20;978.1;;;22.9;72
56272;BME280;42177;48.914;18.160;2023-07-02T08:17:20;978.2;;;22.7;71.7
56272;BME280;42177;48.914;18.160;2023-07-02T08:22:20;978.2;;;22.7;71.7
56272;BME280;42177;48.914;18.160;2023-07-02T08:27:20;978.3;;;23;66.9
56272;BME280;42177;48.914;18.160;2023-07-02T08:32:20;978.3;;;23;66.9
56272;BME280;42177;48.914;18.160;2023-07-02T08:37:20;978.2;;;23.1;64.7
56272;BME280;42177;48.914;18.160;2023-07-02T08:42:20;978.2;;;23.1;64.7
56272;BME280;42177;48.914;18.160;2023-07-02T08:47:20;978.3;;;23.5;63.3
56272;BME280;42177;48.914;18.160;2023-07-02T08:52:21;978.3;;;23.5;63.3
56272;BME280;42177;48.914;18.160;2023-07-02T08:57:20;978.4;;;22.9;64.6
56272;BME280;42177;48.914;18.160;2023-07-02T09:02:29;978.4;;;22.9;64.6
56272;BME280;42177;48.914;18.160;2023-07-02T09:07:20;978.4;;;23.1;67.3
56272;BME280;42177;48.914;18.160;2023-07-02T09:12:22;978.4;;;23.1;67.3
56272;BME280;42177;48.914;18.160;2023-07-02T09:17:20;978.4;;;23.4;65.8
56272;BME280;42177;48.914;18.160;2023-07-02T09:22:20;978.4;;;23.4;65.8
56272;BME280;42177;48.914;18.160;2023-07-02T09:27:20;978.4;;;23.7;66.5
56272;BME280;42177;48.914;18.160;2023-07-02T09:32:24;978.4;;;23.7;66.5
56272;BME280;42177;48.914;18.160;2023-07-02T09:37:20;978.4;;;24.4;62.2
56272;BME280;42177;48.914;18.160;2023-07-02T09:42:20;978.4;;;24.4;62.2
56272;BME280;42177;48.914;18.160;2023-07-02T09:47:21;978.4;;;25;63.7
56272;BME280;42177;48.914;18.160;2023-07-02T09:52:20;978.4;;;25;63.7
56272;BME280;42177;48.914;18.160;2023-07-02T09:57:20;978.3;;;23.9;64.5
56272;BME280;42177;48.914;18.160;2023-07-02T10:02:20;978.3;;;23.9;64.5
56272;BME280;42177;48.914;18.160;2023-07-02T10:07:28;978.3;;;24.6;63.9
56272;BME280;42177;48.914;18.160;2023-07-02T10:12:21;978.3;;;24.6;63.9
56272;BME280;42177;48.914;18.160;2023-07-02T10:17:24;978.4;;;24.5;63.4
56272;BME280;42177;48.914;18.160;2023-07-02T10:22:20;978.4;;;24.5;63.4
56272;BME280;42177;48.914;18.160;2023-07-02T10:27:20;978.3;;;24.4;64.2
56272;BME280;42177;48.914;18.160;2023-07-02T10:32:28;978.3;;;24.4;64.2
56272;BME280;42177;48.914;18.160;2023-07-02T10:37:20;978.3;;;23.9;65.7
56272;BME280;42177;48.914;18.160;2023-07-02T10:42:20;978.3;;;23.9;65.7
56272;BME280;42177;48.914;18.160;2023-07-02T10:47:20;978.2;;;26;59.1
56272;BME280;42177;48.914;18.160;2023-07-02T10:52:20;978.2;;;26;59.1
56272;BME280;42177;48.914;18.160;2023-07-02T10:57:20;978.1;;;25.4;59.5
56272;BME280;42177;48.914;18.160;2023-07-02T11:02:20;978.1;;;25.4;59.5
56272;BME280;42177;48.914;18.160;2023-07-02T11:07:22;978.1;;;26.3;56.8
56272;BME280;42177;48.914;18.160;2023-07-02T11:12:26;978.1;;;26.3;56.8
56272;BME280;42177;48.914;18.160;2023-07-02T11:17:24;977.9;;;26.2;56.5
56272;BME280;42177;48.914;18.160;2023-07-02T11:22:20;977.9;;;26.2;56.5
56272;BME280;42177;48.914;18.160;2023-07-02T11:27:20;977.9;;;26.9;50.9
56272;BME280;42177;48.914;18.160;2023-07-02T11:32:20;977.9;;;26.9;50.9
56272;BME280;42177;48.914;18.160;2023-07-02T11:37:20;977.8;;;26.2;52.1
56272;BME280;42177;48.914;18.160;2023-07-02T11:42:20;977.8;;;26.2;52.1
56272;BME280;42177;48.914;18.160;2023-07-02T11:47:20;977.8;;;25.4;55.6
56272;BME280;42177;48.914;18.160;2023-07-02T11:52:20;977.8;;;25.4;55.6
56272;BME280;42177;48.914;18.160;2023-07-02T11:57:20;977.8;;;25.5;55.8
56272;BME280;42177;48.914;18.160;2023-07-02T12:02:20;977.8;;;25.5;55.8
56272;BME280;42177;48.914;18.160;2023-07-02T12:07:20;977.9;;;27.4;51.5
56272;BME280;42177;48.914;18.160;2023-07-02T12:12:20;977.9;;;27.4;51.5
56272;BME280;42177;48.914;18.160;2023-07-02T12:17:20;977.8;;;26.5;51.7
56272;BME280;42177;48.914;18.160;2023-07-02T12:22:20;977.8;;;26.5;51.7
56272;BME280;42177;48.914;18.160;2023-07-02T12:27:20;977.8;;;26.3;51.4
56272;BME280;42177;48.914;18.160;2023-07-02T12:32:20;977.8;;;26.3;51.4
56272;BME280;42177;48.914;18.160;2023-07-02T12:37:20;977.7;;;26.5;49.1
56272;BME280;42177;48.914;18.160;2023-07-02T12:42:20;977.7;;;26.5;49.1
56272;BME280;42177;48.914;18.160;2023-07-02T12:47:20;977.6;;;26.9;49.1
56272;BME280;42177;48.914;18.160;2023-07-02T12:52:20;977.6;;;26.9;49.1
56272;BME280;42177;48.914;18.160;2023-07-02T12:57:20;977.5;;;25.5;51
56272;BME280;42177;48.914;18.160;2023-07-02T13:02:20;977.5;;;25.5;51
56272;BME280;42177;48.914;18.160;2023-07-02T13:07:20;977.6;;;25.6;52.6
56272;BME280;42177;48.914;18.160;2023-07-02T13:12:20;977.6;;;25.6;52.6
56272;BME280;42177;48.914;18.160;2023-07-02T13:17:20;977.5;;;25.5;54.6
56272;BME280;42177;48.914;18.160;2023-07-02T13:22:20;977.5;;;25.5;54.6
56272;BME280;42177;48.914;18.160;2023-07-02T13:27:20;977.5;;;26.3;53.5
56272;BME280;42177;48.914;18.160;2023-07-02T13:32:20;977.5;;;26.3;53.5
56272;BME280;42177;48.914;18.160;2023-07-02T13:37:20;977.4;;;26.6;51.8
56272;BME280;42177;48.914;18.160;2023-07-02T13:42:20;977.4;;;26.6;51.8
56272;BME280;42177;48.914;18.160;2023-07-02T13:47:20;977.4;;;26.4;47.8
56272;BME280;42177;48.914;18.160;2023-07-02T13:52:20;977.4;;;26.4;47.8
56272;BME280;42177;48.914;18.160;2023-07-02T13:57:20;977.4;;;27.4;44.1
56272;BME280;42177;48.914;18.160;2023-07-02T14:02:20;977.4;;;27.4;44.1
56272;BME280;42177;48.914;18.160;2023-07-02T14:07:20;977.4;;;26.6;43.7
56272;BME280;42177;48.914;18.160;2023-07-02T14:12:20;977.4;;;26.6;43.7
56272;BME280;42177;48.914;18.160;2023-07-02T14:17:20;977.3;;;27.7;41
56272;BME280;42177;48.914;18.160;2023-07-02T14:22:20;977.3;;;27.7;41
56272;BME280;42177;48.914;18.160;2023-07-02T14:27:20;977.3;;;28.3;39.2
56272;BME280;42177;48.914;18.160;2023-07-02T14:32:20;977.3;;;28.3;39.2
56272;BME280;42177;48.914;18.160;2023-07-02T14:37:20;977.2;;;28.1;39.3
56272;BME280;42177;48.914;18.160;2023-07-02T14:42:20;977.2;;;28.1;39.3
56272;BME280;42177;48.914;18.160;2023-07-02T14:47:20;977.3;;;27.2;39.8
56272;BME280;42177;48.914;18.160;2023-07-02T14:52:20;977.3;;;27.2;39.8
56272;BME280;42177;48.914;18.160;2023-07-02T14:57:20;977.3;;;28.4;38.8
56272;BME280;42177;48.914;18.160;2023-07-02T15:02:20;977.3;;;28.4;38.8
56272;BME280;42177;48.914;18.160;2023-07-02T15:07:20;977.4;;;28.4;37.2
56272;BME280;42177;48.914;18.160;2023-07-02T15:12:20;977.4;;;28.4;37.2
56272;BME280;42177;48.914;18.160;2023-07-02T15:17:20;977.3;;;28;38.1
56272;BME280;42177;48.914;18.160;2023-07-02T15:22:20;977.3;;;28;38.1
56272;BME280;42177;48.914;18.160;2023-07-02T15:27:20;977.4;;;28;37.8
56272;BME280;42177;48.914;18.160;2023-07-02T15:32:20;977.4;;;28;37.8
56272;BME280;42177;48.914;18.160;2023-07-02T15:37:20;977.5;;;27.7;37.1
56272;BME280;42177;48.914;18.160;2023-07-02T15:42:20;977.5;;;27.7;37.1
56272;BME280;42177;48.914;18.160;2023-07-02T15:47:20;977.5;;;27.5;37.4
56272;BME280;42177;48.914;18.160;2023-07-02T15:52:20;977.5;;;27.5;37.4
56272;BME280;42177;48.914;18.160;2023-07-02T15:57:20;977.5;;;27.3;38.1
56272;BME280;42177;48.914;18.160;2023-07-02T16:07:21;977.5;;;27.2;38.6
56272;BME280;42177;48.914;18.160;2023-07-02T16:12:21;977.5;;;27.2;38.6
56272;BME280;42177;48.914;18.160;2023-07-02T16:17:20;977.6;;;27;38.8
56272;BME280;42177;48.914;18.160;2023-07-02T16:22:20;977.6;;;27;38.8
56272;BME280;42177;48.914;18.160;2023-07-02T16:27:20;977.7;;;27;38.3
56272;BME280;42177;48.914;18.160;2023-07-02T16:32:20;977.7;;;27;38.3
56272;BME280;42177;48.914;18.160;2023-07-02T16:37:20;977.7;;;26.9;38.5
56272;BME280;42177;48.914;18.160;2023-07-02T16:42:20;977.7;;;26.9;38.5
56272;BME280;42177;48.914;18.160;2023-07-02T16:47:20;977.8;;;26.6;38.8
56272;BME280;42177;48.914;18.160;2023-07-02T16:52:20;977.8;;;26.6;38.8
56272;BME280;42177;48.914;18.160;2023-07-02T16:57:20;977.9;;;26.4;39
56272;BME280;42177;48.914;18.160;2023-07-02T17:02:20;977.9;;;26.4;39
56272;BME280;42177;48.914;18.160;2023-07-02T17:07:20;978;;;26.2;39.2
56272;BME280;42177;48.914;18.160;2023-07-02T17:12:20;978;;;26.2;39.2
56272;BME280;42177;48.914;18.160;2023-07-02T17:17:21;978.1;;;25.8;39.8
56272;BME280;42177;48.914;18.160;2023-07-02T17:22:21;978.1;;;25.8;39.8
56272;BME280;42177;48.914;18.160;2023-07-02T17:27:21;978.1;;;25.6;40
56272;BME280;42177;48.914;18.160;2023-07-02T17:32:20;978.1;;;25.6;40
56272;BME280;42177;48.914;18.160;2023-07-02T17:37:20;978.4;;;25.3;39
56272;BME280;42177;48.914;18.160;2023-07-02T17:42:20;978.4;;;25.3;39
56272;BME280;42177;48.914;18.160;2023-07-02T17:47:20;978.3;;;25.1;39.6
56272;BME280;42177;48.914;18.160;2023-07-02T17:52:20;978.3;;;25.1;39.6
56272;BME280;42177;48.914;18.160;2023-07-02T17:57:20;978.3;;;24.8;40.8
56272;BME280;42177;48.914;18.160;2023-07-02T18:02:20;978.3;;;24.8;40.8
56272;BME280;42177;48.914;18.160;2023-07-02T18:07:20;978.4;;;24.7;42
56272;BME280;42177;48.914;18.160;2023-07-02T18:12:22;978.4;;;24.7;42
56272;BME280;42177;48.914;18.160;2023-07-02T18:17:20;978.5;;;24.4;42.5
56272;BME280;42177;48.914;18.160;2023-07-02T18:22:20;978.5;;;24.4;42.5
56272;BME280;42177;48.914;18.160;2023-07-02T18:27:21;978.6;;;24.2;43.4
56272;BME280;42177;48.914;18.160;2023-07-02T18:32:20;978.6;;;24.2;43.4
56272;BME280;42177;48.914;18.160;2023-07-02T18:37:20;978.8;;;24.1;44.4
56272;BME280;42177;48.914;18.160;2023-07-02T18:42:20;978.8;;;24.1;44.4
56272;BME280;42177;48.914;18.160;2023-07-02T18:47:20;978.8;;;23.6;46.4
56272;BME280;42177;48.914;18.160;2023-07-02T18:52:20;978.8;;;23.6;46.4
56272;BME280;42177;48.914;18.160;2023-07-02T18:57:20;978.9;;;23.4;48
56272;BME280;42177;48.914;18.160;2023-07-02T19:02:20;978.9;;;23.4;48
56272;BME280;42177;48.914;18.160;2023-07-02T19:07:21;979;;;23;49.1
56272;BME280;42177;48.914;18.160;2023-07-02T19:12:20;979;;;23;49.1
56272;BME280;42177;48.914;18.160;2023-07-02T19:17:21;979.3;;;22.5;50.8
56272;BME280;42177;48.914;18.160;2023-07-02T19:22:21;979.3;;;22.5;50.8
56272;BME280;42177;48.914;18.160;2023-07-02T19:27:20;979.5;;;22.7;50.8
56272;BME280;42177;48.914;18.160;2023-07-02T19:32:20;979.5;;;22.7;50.8
56272;BME280;42177;48.914;18.160;2023-07-02T19:37:20;979.7;;;21.8;53.5
56272;BME280;42177;48.914;18.160;2023-07-02T19:42:20;979.7;;;21.8;53.5
56272;BME280;42177;48.914;18.160;2023-07-02T19:47:20;979.8;;;21.8;54.3
56272;BME280;42177;48.914;18.160;2023-07-02T19:52:20;979.8;;;21.8;54.3
56272;BME280;42177;48.914;18.160;2023-07-02T19:57:20;980;;;21.7;55.8
56272;BME280;42177;48.914;18.160;2023-07-02T20:02:20;980;;;21.7;55.8
56272;BME280;42177;48.914;18.160;2023-07-02T20:07:20;980.1;;;21.5;56.2
56272;BME280;42177;48.914;18.160;2023-07-02T20:12:20;980.1;;;21.5;56.2
56272;BME280;42177;48.914;18.160;2023-07-02T20:17:20;980.2;;;20.6;59.5
56272;BME280;42177;48.914;18.160;2023-07-02T20:22:20;980.2;;;20.6;59.5
56272;BME280;42177;48.914;18.160;2023-07-02T20:27:23;980.4;;;20.7;60.1
56272;BME280;42177;48.914;18.160;2023-07-02T20:32:21;980.4;;;20.7;60.1
56272;BME280;42177;48.914;18.160;2023-07-02T20:37:20;980.4;;;20.9;59.7
56272;BME280;42177;48.914;18.160;2023-07-02T20:42:20;980.4;;;20.9;59.7
56272;BME280;42177;48.914;18.160;2023-07-02T20:47:20;980.5;;;20.2;62.5
56272;BME280;42177;48.914;18.160;2023-07-02T20:52:20;980.5;;;20.2;62.5
56272;BME280;42177;48.914;18.160;2023-07-02T20:57:20;980.6;;;20.1;63.7
56272;BME280;42177;48.914;18.160;2023-07-02T21:02:20;980.6;;;20.1;63.7
56272;BME280;42177;48.914;18.160;2023-07-02T21:07:21;980.6;;;19.9;64.3
56272;BME280;42177;48.914;18.160;2023-07-02T21:12:20;980.6;;;19.9;64.3
56272;BME280;42177;48.914;18.160;2023-07-02T21:17:20;980.8;;;19.6;64.8
56272;BME280;42177;48.914;18.160;2023-07-02T21:22:20;980.8;;;19.6;64.8
56272;BME280;42177;48.914;18.160;2023-07-02T21:27:21;980.9;;;19.7;65.7
56272;BME280;42177;48.914;18.160;2023-07-02T21:32:20;980.9;;;19.7;65.7
56272;BME280;42177;48.914;18.160;2023-07-02T21:37:20;980.9;;;19.2;66.6
56272;BME280;42177;48.914;18.160;2023-07-02T21:42:20;980.9;;;19.2;66.6
56272;BME280;42177;48.914;18.160;2023-07-02T21:47:20;981.1;;;19.2;66.6
56272;BME280;42177;48.914;18.160;2023-07-02T21:52:20;981.1;;;19.2;66.6
56272;BME280;42177;48.914;18.160;2023-07-02T21:57:20;981.1;;;19.2;67.3
56272;BME280;42177;48.914;18.160;2023-07-02T22:02:20;981.1;;;19.2;67.3
56272;BME280;42177;48.914;18.160;2023-07-02T22:07:20;981.3;;;18.7;69
56272;BME280;42177;48.914;18.160;2023-07-02T22:12:20;981.3;;;18.7;69
56272;BME280;42177;48.914;18.160;2023-07-02T22:17:20;981.3;;;19.1;67.4
56272;BME280;42177;48.914;18.160;2023-07-02T22:22:20;981.3;;;19.1;67.4
56272;BME280;42177;48.914;18.160;2023-07-02T22:27:21;981.4;;;18.7;68.8
56272;BME280;42177;48.914;18.160;2023-07-02T22:32:20;981.4;;;18.7;68.8
56272;BME280;42177;48.914;18.160;2023-07-02T22:37:20;981.4;;;18.3;70.6
56272;BME280;42177;48.914;18.160;2023-07-02T22:42:20;981.4;;;18.3;70.6
56272;BME280;42177;48.914;18.160;2023-07-02T22:47:20;981.4;;;18.3;70.2
56272;BME280;42177;48.914;18.160;2023-07-02T22:52:20;981.4;;;18.3;70.2
56272;BME280;42177;48.914;18.160;2023-07-02T22:57:21;981.5;;;18.2;70.9
56272;BME280;42177;48.914;18.160;2023-07-02T23:02:20;981.5;;;18.2;70.9
56272;BME280;42177;48.914;18.160;2023-07-02T23:07:20;981.5;;;18.1;72.1
56272;BME280;42177;48.914;18.160;2023-07-02T23:12:20;981.5;;;18.1;72.1
56272;BME280;42177;48.914;18.160;2023-07-02T23:17:20;981.6;;;17.8;73.6
56272;BME280;42177;48.914;18.160;2023-07-02T23:22:20;981.6;;;17.8;73.6
56272;BME280;42177;48.914;18.160;2023-07-02T23:27:20;981.7;;;17.8;72.4
56272;BME280;42177;48.914;18.160;2023-07-02T23:32:20;981.7;;;17.8;72.4
56272;BME280;42177;48.914;18.160;2023-07-02T23:37:20;981.7;;;17.7;73
56272;BME280;42177;48.914;18.160;2023-07-02T23:42:20;981.7;;;17.7;73
56272;BME280;42177;48.914;18.160;2023-07-02T23:47:20;981.8;;;18;71.5
56272;BME280;42177;48.914;18.160;2023-07-02T23:52:20;981.8;;;18;71.5
56272;BME280;42177;48.914;18.160;2023-07-02T23:57:20;981.8;;;17.4;74.3
